Time;durP1;ratioP1;P1;durP2;ratioP2;P2;SDS_P1;SDS_P2;PMS_P1;PMS_P2;Temp;Humidity;BMP_temperature;BMP_pressure;BME280_temperature;BME280_humidity;BME280_pressure;Samples;Min_cycle;Max_cycle;Signal;HPM_P1;HPM_P2
2022/12/16 00:02:12;;;;;;;22.25;15.32;;;;;;;;;;4925700;29;20039;-40
2022/12/16 00:04:37;;;;;;;20.98;15.27;;;;;;;;;;4922691;28;20040;-41
2022/12/16 00:07:02;;;;;;;20.00;14.95;;;;;;;;;;4928964;29;20028;-40
2022/12/16 00:09:28;;;;;;;77.05;16.13;;;;;;;;;;4926324;28;20043;-41
2022/12/16 00:11:53;;;;;;;25.00;16.17;;;;;;;;;;4927355;29;20039;-41
2022/12/16 00:14:18;;;;;;;21.92;15.93;;;;;;;;;;4925320;28;20461;-40
2022/12/16 00:16:44;;;;;;;24.10;17.50;;;;;;;;;;4929406;29;20038;-40
2022/12/16 00:19:09;;;;;;;33.28;16.88;;;;;;;;;;4924549;28;20040;-40
2022/12/16 00:21:35;;;;;;;27.65;17.13;;;;;;;;;;4926892;29;20032;-40
2022/12/16 00:24:01;;;;;;;26.83;17.83;;;;;;;;;;4926106;28;20050;-40
2022/12/16 00:26:28;;;;;;;25.50;18.50;;;;;;;;;;4928790;29;20024;-45
2022/12/16 00:28:53;;;;;;;22.27;17.33;;;;;;;;;;4928721;28;20043;-42
2022/12/16 00:31:19;;;;;;;30.15;16.98;;;;;;;;;;4928614;29;20023;-40
2022/12/16 00:33:44;;;;;;;35.65;16.73;;;;;;;;;;4926143;28;20127;-40
2022/12/16 00:36:10;;;;;;;50.75;17.67;;;;;;;;;;4927428;29;20391;-40
2022/12/16 00:38:35;;;;;;;30.13;18.17;;;;;;;;;;4926657;28;20517;-41
2022/12/16 00:41:01;;;;;;;22.80;17.30;;;;;;;;;;4928023;29;20031;-41
2022/12/16 00:43:26;;;;;;;24.67;18.05;;;;;;;;;;4926482;29;20111;-41
2022/12/16 00:45:51;;;;;;;28.83;18.70;;;;;;;;;;4927131;29;20367;-42
2022/12/16 00:48:18;;;;;;;29.15;18.42;;;;;;;;;;4925547;28;21956;-39
2022/12/16 00:50:48;;;;;;;43.55;19.38;;;;;;;;;;4929733;29;20602;-40
2022/12/16 00:53:14;;;;;;;26.85;17.67;;;;;;;;;;4923949;28;20050;-46
2022/12/16 00:55:39;;;;;;;32.55;18.08;;;;;;;;;;4923764;29;20027;-41
2022/12/16 00:58:05;;;;;;;34.40;17.40;;;;;;;;;;4926894;28;20386;-43
2022/12/16 01:00:30;;;;;;;43.83;17.42;;;;;;;;;;4929868;29;20073;-40
2022/12/16 01:02:56;;;;;;;28.55;16.75;;;;;;;;;;4929294;28;20038;-40
2022/12/16 01:05:25;;;;;;;40.45;19.20;;;;;;;;;;4927569;29;20035;-42
2022/12/16 01:07:50;;;;;;;37.10;17.40;;;;;;;;;;4925500;29;20780;-45
2022/12/16 01:10:16;;;;;;;85.82;19.20;;;;;;;;;;4925902;28;20070;-45
2022/12/16 01:12:41;;;;;;;111.80;17.42;;;;;;;;;;4926130;29;20024;-46
2022/12/16 01:15:09;;;;;;;44.03;16.52;;;;;;;;;;4924634;28;20055;-48
2022/12/16 01:17:34;;;;;;;39.53;15.70;;;;;;;;;;4927372;29;20103;-40
2022/12/16 01:20:00;;;;;;;86.20;15.82;;;;;;;;;;4928035;28;20040;-43
2022/12/16 01:22:29;;;;;;;63.00;14.57;;;;;;;;;;4926505;29;20447;-40
2022/12/16 01:24:54;;;;;;;35.40;14.05;;;;;;;;;;4924698;28;20078;-43
2022/12/16 01:27:20;;;;;;;36.25;12.95;;;;;;;;;;4927546;29;20067;-42
2022/12/16 01:29:45;;;;;;;29.25;13.10;;;;;;;;;;4924951;28;20078;-45
2022/12/16 01:32:13;;;;;;;25.40;12.50;;;;;;;;;;4922930;29;20042;-43
2022/12/16 01:34:39;;;;;;;16.80;10.77;;;;;;;;;;4927514;28;20518;-44
2022/12/16 01:37:05;;;;;;;20.50;10.35;;;;;;;;;;4926240;29;20087;-43
2022/12/16 01:39:30;;;;;;;14.60;9.98;;;;;;;;;;4931920;28;20454;-39
2022/12/16 01:41:56;;;;;;;23.35;9.95;;;;;;;;;;4927801;29;20114;-46
2022/12/16 01:44:25;;;;;;;18.30;10.43;;;;;;;;;;4929390;28;20055;-43
2022/12/16 01:46:55;;;;;;;20.35;10.77;;;;;;;;;;4927444;29;20041;-42
2022/12/16 01:49:35;;;;;;;17.73;10.95;;;;;;;;;;4930267;28;20506;-41
2022/12/16 01:52:03;;;;;;;14.48;9.23;;;;;;;;;;4930366;29;20098;-44
2022/12/16 01:54:41;;;;;;;15.13;8.70;;;;;;;;;;4928994;28;20039;-40
2022/12/16 01:57:11;;;;;;;12.88;8.38;;;;;;;;;;4928236;29;20039;-41
2022/12/16 01:59:39;;;;;;;12.30;8.15;;;;;;;;;;4926645;28;20498;-43
2022/12/16 02:02:05;;;;;;;15.15;8.10;;;;;;;;;;4928456;29;20505;-42
2022/12/16 02:04:30;;;;;;;18.48;8.48;;;;;;;;;;4931536;28;20043;-41
2022/12/16 02:06:57;;;;;;;10.35;7.07;;;;;;;;;;4926312;28;20027;-45
2022/12/16 02:09:23;;;;;;;9.02;7.30;;;;;;;;;;4930354;29;20043;-41
2022/12/16 02:12:06;;;;;;;8.00;6.43;;;;;;;;;;4928969;29;20061;-42
2022/12/16 02:15:11;;;;;;;9.88;5.93;;;;;;;;;;4926845;28;20063;-49
2022/12/16 02:17:51;;;;;;;5.22;4.72;;;;;;;;;;4928168;29;20032;-40
2022/12/16 02:20:54;;;;;;;6.22;5.18;;;;;;;;;;4930441;29;20040;-46
2022/12/16 02:23:41;;;;;;;5.65;5.03;;;;;;;;;;4901717;29;20051;-45
2022/12/16 02:26:25;;;;;;;6.10;5.50;;;;;;;;;;4902755;29;20055;-44
2022/12/16 02:29:14;;;;;;;5.53;5.03;;;;;;;;;;4901651;29;20543;-41
2022/12/16 02:31:58;;;;;;;7.40;5.32;;;;;;;;;;4903963;29;20607;-41
2022/12/16 02:34:34;;;;;;;5.38;4.88;;;;;;;;;;4899795;29;20099;-44
2022/12/16 02:37:29;;;;;;;5.35;4.85;;;;;;;;;;4896742;29;20037;-43
2022/12/16 02:40:10;;;;;;;5.50;5.00;;;;;;;;;;4904665;29;20147;-41
2022/12/16 02:42:49;;;;;;;5.72;5.10;;;;;;;;;;4903452;29;20460;-42
2022/12/16 02:45:23;;;;;;;4.90;4.50;;;;;;;;;;4900583;29;20047;-41
2022/12/16 02:47:49;;;;;;;4.80;4.38;;;;;;;;;;4899080;29;20085;-41
2022/12/16 02:50:21;;;;;;;7.47;4.90;;;;;;;;;;4894017;29;20056;-41
2022/12/16 02:52:48;;;;;;;6.38;4.85;;;;;;;;;;4903161;29;20111;-43
2022/12/16 02:55:14;;;;;;;8.55;4.45;;;;;;;;;;4898608;29;20036;-41
2022/12/16 02:57:55;;;;;;;8.02;5.13;;;;;;;;;;4897026;29;20036;-41
2022/12/16 03:00:22;;;;;;;5.72;5.03;;;;;;;;;;4908942;29;20103;-43
2022/12/16 03:03:03;;;;;;;5.75;5.05;;;;;;;;;;4929213;29;20046;-43
2022/12/16 03:05:47;;;;;;;9.20;5.30;;;;;;;;;;4908151;29;20056;-41
2022/12/16 03:08:27;;;;;;;5.10;4.65;;;;;;;;;;4907403;29;20040;-40
2022/12/16 03:10:58;;;;;;;5.43;4.90;;;;;;;;;;4911794;29;20032;-41
2022/12/16 03:13:26;;;;;;;8.23;4.40;;;;;;;;;;4914243;29;20088;-41
2022/12/16 03:15:53;;;;;;;6.38;5.22;;;;;;;;;;4932196;29;20043;-42
2022/12/16 03:18:20;;;;;;;8.63;5.78;;;;;;;;;;4929678;28;20047;-41
2022/12/16 03:20:57;;;;;;;10.55;6.70;;;;;;;;;;4929385;29;20505;-41
2022/12/16 03:23:47;;;;;;;8.38;6.65;;;;;;;;;;4929019;28;20122;-41
2022/12/16 03:26:18;;;;;;;6.78;5.22;;;;;;;;;;4925146;29;20078;-41
2022/12/16 03:28:52;;;;;;;6.97;5.40;;;;;;;;;;4926194;28;20503;-42
2022/12/16 03:31:43;;;;;;;6.57;5.85;;;;;;;;;;4929444;29;20070;-44
2022/12/16 03:34:31;;;;;;;5.28;4.78;;;;;;;;;;4926361;28;20593;-43
2022/12/16 03:37:02;;;;;;;5.97;5.47;;;;;;;;;;4926356;29;20036;-41
2022/12/16 03:39:30;;;;;;;5.57;5.07;;;;;;;;;;4926380;29;20035;-41
2022/12/16 03:41:56;;;;;;;6.38;5.78;;;;;;;;;;4927508;29;20032;-41
2022/12/16 03:44:24;;;;;;;6.20;5.65;;;;;;;;;;4926588;28;20410;-42
2022/12/16 03:46:50;;;;;;;7.30;6.60;;;;;;;;;;4928235;29;20492;-41
2022/12/16 03:49:16;;;;;;;6.25;5.50;;;;;;;;;;4927741;28;20056;-42
2022/12/16 03:51:41;;;;;;;9.70;5.60;;;;;;;;;;4929203;29;20042;-43
2022/12/16 03:54:06;;;;;;;5.50;5.00;;;;;;;;;;4928466;28;20052;-43
2022/12/16 03:56:32;;;;;;;6.00;5.40;;;;;;;;;;4928491;29;20028;-41
2022/12/16 03:58:57;;;;;;;5.90;5.40;;;;;;;;;;4926244;28;20069;-42
2022/12/16 04:01:23;;;;;;;4.53;4.15;;;;;;;;;;4928594;29;20036;-42
2022/12/16 04:03:48;;;;;;;5.05;4.47;;;;;;;;;;4928061;28;20067;-42
2022/12/16 04:06:17;;;;;;;4.68;4.28;;;;;;;;;;4924647;29;20107;-42
2022/12/16 04:08:46;;;;;;;5.53;4.50;;;;;;;;;;4923644;28;20075;-41
2022/12/16 04:25:09;;;;;;;7.07;5.22;;;;;;;;;;4926699;29;20453;-40
2022/12/16 04:27:34;;;;;;;5.25;4.80;;;;;;;;;;4927673;29;20083;-41
2022/12/16 04:30:17;;;;;;;5.43;4.78;;;;;;;;;;4926812;28;22025;-41
